sensor_id;sensor_type;location;lat;lon;timestamp;P1;durP1;ratioP1;P2;durP2;ratioP2
49131;SDS011;35149;51.196;6.204;2022-08-21T00:01:03;3.70;;;3.13;;
49131;SDS011;35149;51.196;6.204;2022-08-21T00:03:35;5.55;;;4.07;;
49131;SDS011;35149;51.196;6.204;2022-08-21T00:06:02;7.32;;;3.72;;
49131;SDS011;35149;51.196;6.204;2022-08-21T00:08:37;4.10;;;3.70;;
49131;SDS011;35149;51.196;6.204;2022-08-21T00:11:04;3.95;;;3.55;;
49131;SDS011;35149;51.196;6.204;2022-08-21T00:13:31;4.40;;;3.30;;
49131;SDS011;35149;51.196;6.204;2022-08-21T00:16:01;3.60;;;2.97;;
49131;SDS011;35149;51.196;6.204;2022-08-21T00:18:33;3.25;;;3.00;;
49131;SDS011;35149;51.196;6.204;2022-08-21T00:21:02;4.25;;;3.13;;
49131;SDS011;35149;51.196;6.204;2022-08-21T00:23:33;7.43;;;3.72;;
49131;SDS011;35149;51.196;6.204;2022-08-21T00:26:00;4.10;;;3.33;;
49131;SDS011;35149;51.196;6.204;2022-08-21T00:28:34;4.00;;;2.80;;
49131;SDS011;35149;51.196;6.204;2022-08-21T00:31:04;4.32;;;2.92;;
49131;SDS011;35149;51.196;6.204;2022-08-21T00:33:34;3.13;;;2.75;;
49131;SDS011;35149;51.196;6.204;2022-08-21T00:36:00;4.63;;;3.17;;
49131;SDS011;35149;51.196;6.204;2022-08-21T00:38:29;3.17;;;2.80;;
49131;SDS011;35149;51.196;6.204;2022-08-21T00:40:58;4.47;;;2.97;;
49131;SDS011;35149;51.196;6.204;2022-08-21T00:43:50;2.40;;;2.20;;
49131;SDS011;35149;51.196;6.204;2022-08-21T00:46:17;5.13;;;2.17;;
49131;SDS011;35149;51.196;6.204;2022-08-21T00:48:51;3.30;;;2.53;;
49131;SDS011;35149;51.196;6.204;2022-08-21T00:51:24;2.42;;;2.20;;
49131;SDS011;35149;51.196;6.204;2022-08-21T00:54:04;2.10;;;2.00;;
49131;SDS011;35149;51.196;6.204;2022-08-21T00:56:44;3.50;;;2.30;;
49131;SDS011;35149;51.196;6.204;2022-08-21T00:59:18;3.10;;;2.80;;
49131;SDS011;35149;51.196;6.204;2022-08-21T01:01:51;3.33;;;2.30;;
49131;SDS011;35149;51.196;6.204;2022-08-21T01:04:19;4.07;;;2.45;;
49131;SDS011;35149;51.196;6.204;2022-08-21T01:06:48;2.85;;;2.38;;
49131;SDS011;35149;51.196;6.204;2022-08-21T01:09:15;2.40;;;2.13;;
49131;SDS011;35149;51.196;6.204;2022-08-21T01:11:45;2.70;;;2.30;;
49131;SDS011;35149;51.196;6.204;2022-08-21T01:14:12;6.35;;;2.50;;
49131;SDS011;35149;51.196;6.204;2022-08-21T01:16:43;2.60;;;2.35;;
49131;SDS011;35149;51.196;6.204;2022-08-21T01:19:23;3.55;;;2.72;;
49131;SDS011;35149;51.196;6.204;2022-08-21T01:21:51;2.45;;;2.25;;
49131;SDS011;35149;51.196;6.204;2022-08-21T01:24:25;10.32;;;2.70;;
49131;SDS011;35149;51.196;6.204;2022-08-21T01:26:54;2.60;;;2.40;;
49131;SDS011;35149;51.196;6.204;2022-08-21T01:32:23;7.18;;;2.50;;
49131;SDS011;35149;51.196;6.204;2022-08-21T01:34:52;3.83;;;2.58;;
49131;SDS011;35149;51.196;6.204;2022-08-21T01:37:21;2.42;;;2.10;;
49131;SDS011;35149;51.196;6.204;2022-08-21T01:39:51;2.15;;;1.98;;
49131;SDS011;35149;51.196;6.204;2022-08-21T01:42:18;2.85;;;2.65;;
49131;SDS011;35149;51.196;6.204;2022-08-21T01:44:53;4.55;;;3.17;;
49131;SDS011;35149;51.196;6.204;2022-08-21T01:47:21;7.22;;;2.80;;
49131;SDS011;35149;51.196;6.204;2022-08-21T01:49:49;2.35;;;2.08;;
49131;SDS011;35149;51.196;6.204;2022-08-21T01:52:21;2.40;;;2.20;;
49131;SDS011;35149;51.196;6.204;2022-08-21T01:54:50;2.75;;;2.55;;
49131;SDS011;35149;51.196;6.204;2022-08-21T01:57:23;3.10;;;2.75;;
49131;SDS011;35149;51.196;6.204;2022-08-21T01:59:52;2.78;;;2.53;;
49131;SDS011;35149;51.196;6.204;2022-08-21T02:02:21;4.65;;;2.67;;
49131;SDS011;35149;51.196;6.204;2022-08-21T02:04:48;2.47;;;2.28;;
49131;SDS011;35149;51.196;6.204;2022-08-21T02:07:19;2.50;;;2.30;;
49131;SDS011;35149;51.196;6.204;2022-08-21T02:09:47;2.53;;;2.33;;
49131;SDS011;35149;51.196;6.204;2022-08-21T02:12:19;2.47;;;2.30;;
49131;SDS011;35149;51.196;6.204;2022-08-21T02:14:46;2.63;;;2.42;;
49131;SDS011;35149;51.196;6.204;2022-08-21T02:17:13;2.55;;;2.35;;
49131;SDS011;35149;51.196;6.204;2022-08-21T02:19:43;2.38;;;2.17;;
49131;SDS011;35149;51.196;6.204;2022-08-21T02:22:10;3.72;;;2.47;;
49131;SDS011;35149;51.196;6.204;2022-08-21T02:24:44;3.15;;;2.60;;
49131;SDS011;35149;51.196;6.204;2022-08-21T02:27:23;2.60;;;2.40;;
49131;SDS011;35149;51.196;6.204;2022-08-21T02:29:56;3.10;;;2.80;;
49131;SDS011;35149;51.196;6.204;2022-08-21T02:32:24;3.58;;;2.50;;
49131;SDS011;35149;51.196;6.204;2022-08-21T02:34:52;5.07;;;2.33;;
49131;SDS011;35149;51.196;6.204;2022-08-21T02:37:19;4.03;;;2.28;;
49131;SDS011;35149;51.196;6.204;2022-08-21T02:39:46;6.72;;;2.67;;
49131;SDS011;35149;51.196;6.204;2022-08-21T02:42:13;2.60;;;2.40;;
49131;SDS011;35149;51.196;6.204;2022-08-21T02:44:42;3.60;;;2.88;;
49131;SDS011;35149;51.196;6.204;2022-08-21T02:47:11;3.08;;;2.88;;
49131;SDS011;35149;51.196;6.204;2022-08-21T02:49:38;9.25;;;3.10;;
49131;SDS011;35149;51.196;6.204;2022-08-21T02:52:07;6.72;;;3.35;;
49131;SDS011;35149;51.196;6.204;2022-08-21T02:54:33;3.25;;;2.38;;
49131;SDS011;35149;51.196;6.204;2022-08-21T02:57:00;3.90;;;2.97;;
49131;SDS011;35149;51.196;6.204;2022-08-21T02:59:27;3.50;;;3.00;;
49131;SDS011;35149;51.196;6.204;2022-08-21T03:01:54;2.95;;;2.63;;
49131;SDS011;35149;51.196;6.204;2022-08-21T03:04:22;3.25;;;3.05;;
49131;SDS011;35149;51.196;6.204;2022-08-21T03:06:48;4.53;;;3.15;;
49131;SDS011;35149;51.196;6.204;2022-08-21T03:09:15;4.72;;;3.20;;
49131;SDS011;35149;51.196;6.204;2022-08-21T03:11:42;4.50;;;3.83;;
49131;SDS011;35149;51.196;6.204;2022-08-21T03:14:12;6.05;;;3.33;;
49131;SDS011;35149;51.196;6.204;2022-08-21T03:16:39;7.10;;;3.58;;
49131;SDS011;35149;51.196;6.204;2022-08-21T03:19:10;3.60;;;3.30;;
49131;SDS011;35149;51.196;6.204;2022-08-21T03:21:39;4.55;;;3.58;;
49131;SDS011;35149;51.196;6.204;2022-08-21T03:24:05;3.75;;;3.45;;
49131;SDS011;35149;51.196;6.204;2022-08-21T03:26:33;4.90;;;4.13;;
49131;SDS011;35149;51.196;6.204;2022-08-21T03:29:07;5.72;;;3.35;;
49131;SDS011;35149;51.196;6.204;2022-08-21T03:31:33;4.68;;;3.75;;
49131;SDS011;35149;51.196;6.204;2022-08-21T03:34:06;4.03;;;3.67;;
49131;SDS011;35149;51.196;6.204;2022-08-21T03:36:38;5.22;;;3.95;;
49131;SDS011;35149;51.196;6.204;2022-08-21T03:39:05;4.10;;;3.55;;
49131;SDS011;35149;51.196;6.204;2022-08-21T03:41:32;4.22;;;3.83;;
49131;SDS011;35149;51.196;6.204;2022-08-21T03:43:58;4.28;;;3.55;;
49131;SDS011;35149;51.196;6.204;2022-08-21T03:46:36;5.22;;;4.43;;
49131;SDS011;35149;51.196;6.204;2022-08-21T03:49:05;6.22;;;4.75;;
49131;SDS011;35149;51.196;6.204;2022-08-21T03:51:32;7.32;;;4.90;;
49131;SDS011;35149;51.196;6.204;2022-08-21T03:54:03;6.05;;;4.50;;
49131;SDS011;35149;51.196;6.204;2022-08-21T03:56:33;5.78;;;4.57;;
49131;SDS011;35149;51.196;6.204;2022-08-21T03:59:02;6.40;;;4.72;;
49131;SDS011;35149;51.196;6.204;2022-08-21T04:01:29;5.10;;;4.60;;
49131;SDS011;35149;51.196;6.204;2022-08-21T04:04:02;5.88;;;4.63;;
49131;SDS011;35149;51.196;6.204;2022-08-21T04:06:34;6.35;;;4.38;;
49131;SDS011;35149;51.196;6.204;2022-08-21T04:09:03;8.48;;;4.88;;
49131;SDS011;35149;51.196;6.204;2022-08-21T04:11:29;5.03;;;4.60;;
49131;SDS011;35149;51.196;6.204;2022-08-21T04:13:58;7.85;;;5.20;;
49131;SDS011;35149;51.196;6.204;2022-08-21T04:16:28;7.78;;;4.80;;
49131;SDS011;35149;51.196;6.204;2022-08-21T04:18:58;7.10;;;4.90;;
49131;SDS011;35149;51.196;6.204;2022-08-21T04:21:27;7.05;;;4.68;;
49131;SDS011;35149;51.196;6.204;2022-08-21T04:23:55;5.03;;;3.97;;
49131;SDS011;35149;51.196;6.204;2022-08-21T04:26:25;6.55;;;5.03;;
49131;SDS011;35149;51.196;6.204;2022-08-21T04:28:53;5.95;;;4.55;;
49131;SDS011;35149;51.196;6.204;2022-08-21T04:31:24;6.80;;;4.85;;
49131;SDS011;35149;51.196;6.204;2022-08-21T04:33:51;4.43;;;4.03;;
49131;SDS011;35149;51.196;6.204;2022-08-21T04:36:20;5.70;;;4.38;;
49131;SDS011;35149;51.196;6.204;2022-08-21T04:38:51;5.38;;;3.88;;
49131;SDS011;35149;51.196;6.204;2022-08-21T04:41:20;5.22;;;4.22;;
49131;SDS011;35149;51.196;6.204;2022-08-21T04:43:56;6.28;;;4.13;;
49131;SDS011;35149;51.196;6.204;2022-08-21T04:46:24;5.10;;;3.72;;
49131;SDS011;35149;51.196;6.204;2022-08-21T04:48:51;5.30;;;4.10;;
49131;SDS011;35149;51.196;6.204;2022-08-21T04:51:22;4.97;;;4.00;;
49131;SDS011;35149;51.196;6.204;2022-08-21T04:54:00;5.15;;;3.85;;
49131;SDS011;35149;51.196;6.204;2022-08-21T04:56:50;6.43;;;4.57;;
49131;SDS011;35149;51.196;6.204;2022-08-21T04:59:22;6.25;;;4.78;;
49131;SDS011;35149;51.196;6.204;2022-08-21T05:01:53;5.68;;;4.70;;
49131;SDS011;35149;51.196;6.204;2022-08-21T05:04:25;7.03;;;4.93;;
49131;SDS011;35149;51.196;6.204;2022-08-21T05:06:54;6.75;;;4.32;;
49131;SDS011;35149;51.196;6.204;2022-08-21T05:09:26;5.45;;;4.22;;
49131;SDS011;35149;51.196;6.204;2022-08-21T05:12:03;5.38;;;3.38;;
49131;SDS011;35149;51.196;6.204;2022-08-21T05:14:30;6.75;;;3.65;;
49131;SDS011;35149;51.196;6.204;2022-08-21T05:16:57;5.60;;;3.80;;
49131;SDS011;35149;51.196;6.204;2022-08-21T05:19:24;6.43;;;3.83;;
49131;SDS011;35149;51.196;6.204;2022-08-21T05:21:54;6.25;;;3.47;;
49131;SDS011;35149;51.196;6.204;2022-08-21T05:24:21;4.72;;;3.20;;
49131;SDS011;35149;51.196;6.204;2022-08-21T05:26:50;5.05;;;3.60;;
49131;SDS011;35149;51.196;6.204;2022-08-21T05:29:21;4.35;;;3.38;;
49131;SDS011;35149;51.196;6.204;2022-08-21T05:31:48;7.65;;;3.90;;
49131;SDS011;35149;51.196;6.204;2022-08-21T05:34:21;5.00;;;3.05;;
49131;SDS011;35149;51.196;6.204;2022-08-21T05:36:49;6.27;;;3.30;;
49131;SDS011;35149;51.196;6.204;2022-08-21T05:39:16;5.80;;;3.47;;
49131;SDS011;35149;51.196;6.204;2022-08-21T05:41:45;3.90;;;3.40;;
49131;SDS011;35149;51.196;6.204;2022-08-21T05:44:12;5.85;;;3.30;;
49131;SDS011;35149;51.196;6.204;2022-08-21T05:46:41;7.20;;;3.47;;
49131;SDS011;35149;51.196;6.204;2022-08-21T05:49:10;3.63;;;3.28;;
49131;SDS011;35149;51.196;6.204;2022-08-21T05:51:39;5.15;;;3.08;;
49131;SDS011;35149;51.196;6.204;2022-08-21T05:54:07;7.35;;;3.42;;
49131;SDS011;35149;51.196;6.204;2022-08-21T05:56:34;6.03;;;3.55;;
49131;SDS011;35149;51.196;6.204;2022-08-21T05:59:01;6.05;;;3.05;;
49131;SDS011;35149;51.196;6.204;2022-08-21T06:01:34;5.97;;;3.95;;
49131;SDS011;35149;51.196;6.204;2022-08-21T06:04:00;7.78;;;3.63;;
49131;SDS011;35149;51.196;6.204;2022-08-21T06:06:27;6.10;;;3.25;;
49131;SDS011;35149;51.196;6.204;2022-08-21T06:08:54;5.05;;;3.15;;
49131;SDS011;35149;51.196;6.204;2022-08-21T06:11:21;4.28;;;2.75;;
49131;SDS011;35149;51.196;6.204;2022-08-21T06:13:53;4.55;;;2.72;;
49131;SDS011;35149;51.196;6.204;2022-08-21T06:16:20;7.47;;;3.72;;
49131;SDS011;35149;51.196;6.204;2022-08-21T06:18:48;6.95;;;3.58;;
49131;SDS011;35149;51.196;6.204;2022-08-21T06:21:15;3.38;;;2.47;;
49131;SDS011;35149;51.196;6.204;2022-08-21T06:23:42;5.15;;;3.20;;
49131;SDS011;35149;51.196;6.204;2022-08-21T06:26:11;6.35;;;3.05;;
49131;SDS011;35149;51.196;6.204;2022-08-21T06:28:40;4.20;;;2.70;;
49131;SDS011;35149;51.196;6.204;2022-08-21T06:31:14;6.13;;;3.05;;
49131;SDS011;35149;51.196;6.204;2022-08-21T06:33:45;4.43;;;2.53;;
49131;SDS011;35149;51.196;6.204;2022-08-21T06:36:12;5.55;;;2.50;;
49131;SDS011;35149;51.196;6.204;2022-08-21T06:38:39;5.93;;;2.35;;
49131;SDS011;35149;51.196;6.204;2022-08-21T06:41:06;10.48;;;2.85;;
49131;SDS011;35149;51.196;6.204;2022-08-21T06:43:35;4.38;;;2.30;;
49131;SDS011;35149;51.196;6.204;2022-08-21T06:46:05;6.93;;;2.17;;
49131;SDS011;35149;51.196;6.204;2022-08-21T06:48:33;4.32;;;2.63;;
49131;SDS011;35149;51.196;6.204;2022-08-21T06:51:00;2.92;;;1.83;;
49131;SDS011;35149;51.196;6.204;2022-08-21T06:53:27;3.53;;;1.95;;
49131;SDS011;35149;51.196;6.204;2022-08-21T06:55:54;3.90;;;2.22;;
49131;SDS011;35149;51.196;6.204;2022-08-21T06:58:23;8.00;;;2.30;;
49131;SDS011;35149;51.196;6.204;2022-08-21T07:00:51;4.82;;;2.70;;
49131;SDS011;35149;51.196;6.204;2022-08-21T07:03:20;11.00;;;2.70;;
49131;SDS011;35149;51.196;6.204;2022-08-21T07:05:53;4.75;;;2.60;;
49131;SDS011;35149;51.196;6.204;2022-08-21T07:08:20;4.65;;;2.08;;
49131;SDS011;35149;51.196;6.204;2022-08-21T07:10:47;4.25;;;2.75;;
49131;SDS011;35149;51.196;6.204;2022-08-21T07:13:15;6.38;;;3.00;;
49131;SDS011;35149;51.196;6.204;2022-08-21T07:15:42;5.85;;;2.60;;
49131;SDS011;35149;51.196;6.204;2022-08-21T07:18:09;5.05;;;2.78;;
49131;SDS011;35149;51.196;6.204;2022-08-21T07:20:36;5.68;;;2.90;;
49131;SDS011;35149;51.196;6.204;2022-08-21T07:23:04;3.88;;;2.45;;
49131;SDS011;35149;51.196;6.204;2022-08-21T07:25:33;4.22;;;1.80;;
49131;SDS011;35149;51.196;6.204;2022-08-21T07:27:59;3.60;;;2.00;;
49131;SDS011;35149;51.196;6.204;2022-08-21T07:30:26;6.30;;;2.17;;
49131;SDS011;35149;51.196;6.204;2022-08-21T07:32:53;5.78;;;1.90;;
49131;SDS011;35149;51.196;6.204;2022-08-21T07:35:20;4.10;;;1.58;;
49131;SDS011;35149;51.196;6.204;2022-08-21T07:37:49;8.32;;;1.90;;
49131;SDS011;35149;51.196;6.204;2022-08-21T07:40:16;3.17;;;2.78;;
49131;SDS011;35149;51.196;6.204;2022-08-21T07:42:44;4.43;;;1.80;;
49131;SDS011;35149;51.196;6.204;2022-08-21T07:45:12;4.78;;;2.38;;
49131;SDS011;35149;51.196;6.204;2022-08-21T07:47:40;5.47;;;2.30;;
49131;SDS011;35149;51.196;6.204;2022-08-21T07:50:09;4.05;;;1.63;;
49131;SDS011;35149;51.196;6.204;2022-08-21T07:52:38;3.60;;;1.52;;
49131;SDS011;35149;51.196;6.204;2022-08-21T07:55:06;3.72;;;1.30;;
49131;SDS011;35149;51.196;6.204;2022-08-21T07:57:34;5.22;;;1.70;;
49131;SDS011;35149;51.196;6.204;2022-08-21T08:00:02;2.67;;;1.50;;
49131;SDS011;35149;51.196;6.204;2022-08-21T08:02:37;4.07;;;1.42;;
49131;SDS011;35149;51.196;6.204;2022-08-21T08:05:05;3.90;;;1.80;;
49131;SDS011;35149;51.196;6.204;2022-08-21T08:07:34;2.95;;;1.48;;
49131;SDS011;35149;51.196;6.204;2022-08-21T08:10:01;3.83;;;1.38;;
49131;SDS011;35149;51.196;6.204;2022-08-21T08:12:29;4.63;;;1.30;;
49131;SDS011;35149;51.196;6.204;2022-08-21T08:14:56;4.60;;;1.63;;
49131;SDS011;35149;51.196;6.204;2022-08-21T08:17:24;4.93;;;1.92;;
49131;SDS011;35149;51.196;6.204;2022-08-21T08:19:51;1.90;;;1.58;;
49131;SDS011;35149;51.196;6.204;2022-08-21T08:22:19;3.03;;;1.40;;
49131;SDS011;35149;51.196;6.204;2022-08-21T08:24:50;6.40;;;3.22;;
49131;SDS011;35149;51.196;6.204;2022-08-21T08:27:17;4.07;;;1.38;;
49131;SDS011;35149;51.196;6.204;2022-08-21T08:29:45;3.95;;;1.88;;
49131;SDS011;35149;51.196;6.204;2022-08-21T08:32:14;4.68;;;2.15;;
49131;SDS011;35149;51.196;6.204;2022-08-21T08:34:43;2.17;;;1.17;;
49131;SDS011;35149;51.196;6.204;2022-08-21T08:37:13;2.42;;;1.02;;
49131;SDS011;35149;51.196;6.204;2022-08-21T08:39:42;3.70;;;1.05;;
49131;SDS011;35149;51.196;6.204;2022-08-21T08:42:12;4.30;;;1.73;;
49131;SDS011;35149;51.196;6.204;2022-08-21T08:45:08;1.85;;;1.08;;
49131;SDS011;35149;51.196;6.204;2022-08-21T08:47:38;7.60;;;1.13;;
49131;SDS011;35149;51.196;6.204;2022-08-21T08:55:26;3.85;;;1.00;;
49131;SDS011;35149;51.196;6.204;2022-08-21T08:58:03;4.20;;;0.80;;
49131;SDS011;35149;51.196;6.204;2022-08-21T09:00:38;1.35;;;0.73;;
49131;SDS011;35149;51.196;6.204;2022-08-21T09:03:05;1.25;;;0.70;;
49131;SDS011;35149;51.196;6.204;2022-08-21T09:05:39;2.67;;;0.88;;
49131;SDS011;35149;51.196;6.204;2022-08-21T09:08:19;3.30;;;0.80;;
49131;SDS011;35149;51.196;6.204;2022-08-21T09:10:56;2.25;;;0.80;;
49131;SDS011;35149;51.196;6.204;2022-08-21T09:22:28;3.47;;;1.00;;
49131;SDS011;35149;51.196;6.204;2022-08-21T09:28:07;3.28;;;1.10;;
49131;SDS011;35149;51.196;6.204;2022-08-21T09:30:38;2.13;;;0.80;;
49131;SDS011;35149;51.196;6.204;2022-08-21T09:33:07;1.38;;;0.93;;
49131;SDS011;35149;51.196;6.204;2022-08-21T09:35:47;3.67;;;1.17;;
49131;SDS011;35149;51.196;6.204;2022-08-21T09:38:29;3.70;;;1.33;;
49131;SDS011;35149;51.196;6.204;2022-08-21T09:40:59;2.53;;;0.75;;
49131;SDS011;35149;51.196;6.204;2022-08-21T09:46:05;3.60;;;0.95;;
49131;SDS011;35149;51.196;6.204;2022-08-21T09:48:38;2.92;;;1.10;;
49131;SDS011;35149;51.196;6.204;2022-08-21T09:51:18;2.28;;;1.40;;
49131;SDS011;35149;51.196;6.204;2022-08-21T09:56:57;2.65;;;1.02;;
49131;SDS011;35149;51.196;6.204;2022-08-21T10:00:07;2.63;;;0.90;;
49131;SDS011;35149;51.196;6.204;2022-08-21T10:02:44;1.00;;;0.75;;
49131;SDS011;35149;51.196;6.204;2022-08-21T10:05:18;7.95;;;1.55;;
49131;SDS011;35149;51.196;6.204;2022-08-21T10:07:49;2.10;;;0.80;;
49131;SDS011;35149;51.196;6.204;2022-08-21T10:10:21;2.80;;;0.85;;
49131;SDS011;35149;51.196;6.204;2022-08-21T10:13:05;2.75;;;0.98;;
49131;SDS011;35149;51.196;6.204;2022-08-21T10:16:04;3.67;;;1.23;;
49131;SDS011;35149;51.196;6.204;2022-08-21T10:18:49;1.52;;;0.80;;
49131;SDS011;35149;51.196;6.204;2022-08-21T10:21:30;3.30;;;0.95;;
49131;SDS011;35149;51.196;6.204;2022-08-21T10:27:04;1.33;;;1.08;;
49131;SDS011;35149;51.196;6.204;2022-08-21T10:29:40;2.10;;;1.55;;
49131;SDS011;35149;51.196;6.204;2022-08-21T10:32:18;1.70;;;0.80;;
49131;SDS011;35149;51.196;6.204;2022-08-21T10:41:04;4.00;;;1.30;;
49131;SDS011;35149;51.196;6.204;2022-08-21T10:49:17;4.20;;;0.90;;
49131;SDS011;35149;51.196;6.204;2022-08-21T10:52:09;3.45;;;0.90;;
49131;SDS011;35149;51.196;6.204;2022-08-21T10:55:17;1.15;;;0.80;;
49131;SDS011;35149;51.196;6.204;2022-08-21T11:03:07;1.27;;;0.80;;
49131;SDS011;35149;51.196;6.204;2022-08-21T11:05:45;2.55;;;0.85;;
49131;SDS011;35149;51.196;6.204;2022-08-21T11:08:23;4.28;;;1.20;;
49131;SDS011;35149;51.196;6.204;2022-08-21T11:13:55;4.20;;;1.00;;
49131;SDS011;35149;51.196;6.204;2022-08-21T11:16:42;1.35;;;0.98;;
49131;SDS011;35149;51.196;6.204;2022-08-21T11:19:17;4.63;;;1.30;;
49131;SDS011;35149;51.196;6.204;2022-08-21T11:29:58;2.33;;;1.13;;
49131;SDS011;35149;51.196;6.204;2022-08-21T11:49:38;0.70;;;0.60;;
49131;SDS011;35149;51.196;6.204;2022-08-21T11:51:50;1.85;;;0.90;;
49131;SDS011;35149;51.196;6.204;2022-08-21T12:00:09;2.00;;;0.80;;
49131;SDS011;35149;51.196;6.204;2022-08-21T12:02:46;3.30;;;0.90;;
49131;SDS011;35149;51.196;6.204;2022-08-21T12:05:29;4.13;;;1.30;;
49131;SDS011;35149;51.196;6.204;2022-08-21T12:08:45;2.03;;;0.90;;
49131;SDS011;35149;51.196;6.204;2022-08-21T12:16:33;2.70;;;0.88;;
49131;SDS011;35149;51.196;6.204;2022-08-21T12:19:09;3.08;;;0.80;;
49131;SDS011;35149;51.196;6.204;2022-08-21T12:21:53;4.20;;;1.20;;
49131;SDS011;35149;51.196;6.204;2022-08-21T12:26:54;3.22;;;0.80;;
49131;SDS011;35149;51.196;6.204;2022-08-21T12:29:27;2.38;;;0.82;;
49131;SDS011;35149;51.196;6.204;2022-08-21T12:34:49;2.47;;;1.05;;
49131;SDS011;35149;51.196;6.204;2022-08-21T12:37:30;2.60;;;0.93;;
49131;SDS011;35149;51.196;6.204;2022-08-21T12:40:11;1.65;;;0.50;;
49131;SDS011;35149;51.196;6.204;2022-08-21T12:42:44;1.90;;;0.80;;
49131;SDS011;35149;51.196;6.204;2022-08-21T12:47:59;2.80;;;1.00;;
49131;SDS011;35149;51.196;6.204;2022-08-21T12:56:01;0.95;;;0.65;;
49131;SDS011;35149;51.196;6.204;2022-08-21T12:58:30;1.83;;;0.75;;
49131;SDS011;35149;51.196;6.204;2022-08-21T13:01:03;3.38;;;1.08;;
49131;SDS011;35149;51.196;6.204;2022-08-21T13:03:37;1.25;;;0.80;;
49131;SDS011;35149;51.196;6.204;2022-08-21T13:06:05;1.50;;;0.70;;
49131;SDS011;35149;51.196;6.204;2022-08-21T13:08:35;2.13;;;0.70;;
49131;SDS011;35149;51.196;6.204;2022-08-21T13:11:12;1.00;;;0.57;;
49131;SDS011;35149;51.196;6.204;2022-08-21T13:13:59;1.92;;;0.68;;
49131;SDS011;35149;51.196;6.204;2022-08-21T13:16:30;2.60;;;0.70;;
49131;SDS011;35149;51.196;6.204;2022-08-21T13:19:03;1.30;;;0.77;;
49131;SDS011;35149;51.196;6.204;2022-08-21T13:21:33;3.55;;;1.15;;
49131;SDS011;35149;51.196;6.204;2022-08-21T13:27:21;3.55;;;0.95;;
49131;SDS011;35149;51.196;6.204;2022-08-21T13:32:32;2.08;;;0.52;;
49131;SDS011;35149;51.196;6.204;2022-08-21T13:35:46;1.42;;;0.70;;
49131;SDS011;35149;51.196;6.204;2022-08-21T13:38:02;2.15;;;0.93;;
49131;SDS011;35149;51.196;6.204;2022-08-21T13:40:32;1.10;;;0.77;;
49131;SDS011;35149;51.196;6.204;2022-08-21T13:43:10;1.23;;;0.60;;
49131;SDS011;35149;51.196;6.204;2022-08-21T13:45:52;2.03;;;0.70;;
49131;SDS011;35149;51.196;6.204;2022-08-21T13:48:20;1.65;;;0.60;;
49131;SDS011;35149;51.196;6.204;2022-08-21T13:50:52;3.65;;;0.73;;
49131;SDS011;35149;51.196;6.204;2022-08-21T13:58:27;1.20;;;0.50;;
49131;SDS011;35149;51.196;6.204;2022-08-21T14:00:54;1.30;;;0.60;;
49131;SDS011;35149;51.196;6.204;2022-08-21T14:03:33;0.70;;;0.43;;
49131;SDS011;35149;51.196;6.204;2022-08-21T14:06:23;1.63;;;0.70;;
49131;SDS011;35149;51.196;6.204;2022-08-21T14:08:56;1.85;;;0.80;;
49131;SDS011;35149;51.196;6.204;2022-08-21T14:11:26;2.03;;;0.77;;
49131;SDS011;35149;51.196;6.204;2022-08-21T14:14:00;1.95;;;0.80;;
49131;SDS011;35149;51.196;6.204;2022-08-21T14:16:41;2.72;;;0.90;;
49131;SDS011;35149;51.196;6.204;2022-08-21T14:19:20;0.95;;;0.60;;
49131;SDS011;35149;51.196;6.204;2022-08-21T14:26:51;1.52;;;0.63;;
49131;SDS011;35149;51.196;6.204;2022-08-21T14:29:39;1.63;;;0.70;;
49131;SDS011;35149;51.196;6.204;2022-08-21T14:32:13;2.58;;;0.68;;
49131;SDS011;35149;51.196;6.204;2022-08-21T14:34:54;1.50;;;0.60;;
49131;SDS011;35149;51.196;6.204;2022-08-21T14:37:26;1.67;;;0.70;;
49131;SDS011;35149;51.196;6.204;2022-08-21T14:39:53;1.55;;;0.77;;
49131;SDS011;35149;51.196;6.204;2022-08-21T14:42:20;1.60;;;0.50;;
49131;SDS011;35149;51.196;6.204;2022-08-21T14:44:48;0.98;;;0.60;;
49131;SDS011;35149;51.196;6.204;2022-08-21T14:47:15;1.25;;;0.47;;
49131;SDS011;35149;51.196;6.204;2022-08-21T14:49:42;1.27;;;0.68;;
49131;SDS011;35149;51.196;6.204;2022-08-21T14:52:09;1.58;;;0.95;;
49131;SDS011;35149;51.196;6.204;2022-08-21T14:54:35;1.65;;;0.73;;
49131;SDS011;35149;51.196;6.204;2022-08-21T14:57:06;2.75;;;0.82;;
49131;SDS011;35149;51.196;6.204;2022-08-21T14:59:35;0.88;;;0.52;;
49131;SDS011;35149;51.196;6.204;2022-08-21T15:02:03;2.17;;;0.47;;
49131;SDS011;35149;51.196;6.204;2022-08-21T15:04:31;0.93;;;0.43;;
49131;SDS011;35149;51.196;6.204;2022-08-21T15:06:58;1.15;;;0.40;;
49131;SDS011;35149;51.196;6.204;2022-08-21T15:09:25;1.83;;;0.52;;
49131;SDS011;35149;51.196;6.204;2022-08-21T15:11:53;1.33;;;0.55;;
49131;SDS011;35149;51.196;6.204;2022-08-21T15:14:26;2.08;;;0.88;;
49131;SDS011;35149;51.196;6.204;2022-08-21T15:16:55;1.40;;;0.57;;
49131;SDS011;35149;51.196;6.204;2022-08-21T15:19:23;2.50;;;0.82;;
49131;SDS011;35149;51.196;6.204;2022-08-21T15:21:52;0.80;;;0.60;;
49131;SDS011;35149;51.196;6.204;2022-08-21T15:24:19;3.70;;;0.50;;
49131;SDS011;35149;51.196;6.204;2022-08-21T15:26:46;1.75;;;0.60;;
49131;SDS011;35149;51.196;6.204;2022-08-21T15:29:13;1.70;;;0.50;;
49131;SDS011;35149;51.196;6.204;2022-08-21T15:31:58;2.00;;;0.63;;
49131;SDS011;35149;51.196;6.204;2022-08-21T15:34:28;2.15;;;0.70;;
49131;SDS011;35149;51.196;6.204;2022-08-21T15:36:56;0.85;;;0.50;;
49131;SDS011;35149;51.196;6.204;2022-08-21T15:39:25;2.83;;;0.90;;
49131;SDS011;35149;51.196;6.204;2022-08-21T15:41:57;1.73;;;0.50;;
49131;SDS011;35149;51.196;6.204;2022-08-21T15:44:24;1.70;;;0.65;;
49131;SDS011;35149;51.196;6.204;2022-08-21T15:46:52;2.42;;;0.80;;
49131;SDS011;35149;51.196;6.204;2022-08-21T15:49:20;1.08;;;0.82;;
49131;SDS011;35149;51.196;6.204;2022-08-21T15:51:46;2.33;;;0.68;;
49131;SDS011;35149;51.196;6.204;2022-08-21T15:54:13;1.88;;;0.77;;
49131;SDS011;35149;51.196;6.204;2022-08-21T15:56:41;1.73;;;0.68;;
49131;SDS011;35149;51.196;6.204;2022-08-21T15:59:13;2.55;;;0.90;;
49131;SDS011;35149;51.196;6.204;2022-08-21T16:01:43;1.73;;;0.60;;
49131;SDS011;35149;51.196;6.204;2022-08-21T16:04:13;1.83;;;0.60;;
49131;SDS011;35149;51.196;6.204;2022-08-21T16:06:45;3.05;;;0.75;;
49131;SDS011;35149;51.196;6.204;2022-08-21T16:09:21;2.65;;;0.63;;
49131;SDS011;35149;51.196;6.204;2022-08-21T16:11:48;1.27;;;0.70;;
49131;SDS011;35149;51.196;6.204;2022-08-21T16:14:15;2.25;;;0.85;;
49131;SDS011;35149;51.196;6.204;2022-08-21T16:16:42;3.95;;;0.82;;
49131;SDS011;35149;51.196;6.204;2022-08-21T16:19:10;2.92;;;1.00;;
49131;SDS011;35149;51.196;6.204;2022-08-21T16:21:38;3.45;;;1.00;;
49131;SDS011;35149;51.196;6.204;2022-08-21T16:24:04;1.63;;;0.60;;
49131;SDS011;35149;51.196;6.204;2022-08-21T16:26:31;1.80;;;0.70;;
49131;SDS011;35149;51.196;6.204;2022-08-21T16:28:59;2.15;;;0.65;;
49131;SDS011;35149;51.196;6.204;2022-08-21T16:31:28;0.90;;;0.50;;
49131;SDS011;35149;51.196;6.204;2022-08-21T16:33:56;2.08;;;0.80;;
49131;SDS011;35149;51.196;6.204;2022-08-21T16:36:23;1.67;;;0.70;;
49131;SDS011;35149;51.196;6.204;2022-08-21T16:38:52;3.70;;;0.77;;
49131;SDS011;35149;51.196;6.204;2022-08-21T16:41:20;2.03;;;0.90;;
49131;SDS011;35149;51.196;6.204;2022-08-21T16:43:49;3.58;;;1.17;;
49131;SDS011;35149;51.196;6.204;2022-08-21T16:46:17;4.82;;;1.60;;
49131;SDS011;35149;51.196;6.204;2022-08-21T16:48:45;3.65;;;1.00;;
49131;SDS011;35149;51.196;6.204;2022-08-21T16:51:13;2.67;;;1.17;;
49131;SDS011;35149;51.196;6.204;2022-08-21T16:53:41;2.78;;;0.95;;
49131;SDS011;35149;51.196;6.204;2022-08-21T16:56:09;1.98;;;0.70;;
49131;SDS011;35149;51.196;6.204;2022-08-21T16:58:39;1.50;;;0.90;;
49131;SDS011;35149;51.196;6.204;2022-08-21T17:01:10;3.53;;;0.80;;
49131;SDS011;35149;51.196;6.204;2022-08-21T17:03:42;3.22;;;1.05;;
49131;SDS011;35149;51.196;6.204;2022-08-21T17:06:11;3.42;;;1.35;;